sensor_id;sensor_type;location;lat;lon;timestamp;temperature;humidity
18446;DHT22;9352;50.888;4.466;2022-07-29T00:00:46;19.50;99.90
18446;DHT22;9352;50.888;4.466;2022-07-29T00:03:13;19.50;99.90
18446;DHT22;9352;50.888;4.466;2022-07-29T00:05:41;19.50;99.90
18446;DHT22;9352;50.888;4.466;2022-07-29T00:08:08;19.50;99.90
18446;DHT22;9352;50.888;4.466;2022-07-29T00:10:35;19.50;99.90
18446;DHT22;9352;50.888;4.466;2022-07-29T00:13:03;19.50;99.90
18446;DHT22;9352;50.888;4.466;2022-07-29T00:15:30;19.50;99.90
18446;DHT22;9352;50.888;4.466;2022-07-29T00:17:57;19.50;99.90
18446;DHT22;9352;50.888;4.466;2022-07-29T00:20:24;19.50;99.90
18446;DHT22;9352;50.888;4.466;2022-07-29T00:22:51;19.50;99.90
18446;DHT22;9352;50.888;4.466;2022-07-29T00:25:19;19.50;99.90
18446;DHT22;9352;50.888;4.466;2022-07-29T00:27:46;19.50;99.90
18446;DHT22;9352;50.888;4.466;2022-07-29T00:30:14;19.40;99.90
18446;DHT22;9352;50.888;4.466;2022-07-29T00:32:41;19.30;99.90
18446;DHT22;9352;50.888;4.466;2022-07-29T00:35:09;19.20;99.90
18446;DHT22;9352;50.888;4.466;2022-07-29T00:37:53;19.20;99.90
18446;DHT22;9352;50.888;4.466;2022-07-29T00:40:20;19.20;99.90
18446;DHT22;9352;50.888;4.466;2022-07-29T00:42:51;19.20;99.90
18446;DHT22;9352;50.888;4.466;2022-07-29T00:45:20;19.20;99.90
18446;DHT22;9352;50.888;4.466;2022-07-29T00:47:47;19.20;99.90
18446;DHT22;9352;50.888;4.466;2022-07-29T00:50:15;19.10;99.90
18446;DHT22;9352;50.888;4.466;2022-07-29T00:52:42;19.00;99.90
18446;DHT22;9352;50.888;4.466;2022-07-29T00:55:11;19.00;99.90
18446;DHT22;9352;50.888;4.466;2022-07-29T00:57:38;18.90;99.90
18446;DHT22;9352;50.888;4.466;2022-07-29T01:00:08;18.90;99.90
18446;DHT22;9352;50.888;4.466;2022-07-29T01:02:37;19.00;99.90
18446;DHT22;9352;50.888;4.466;2022-07-29T01:05:05;19.00;99.90
18446;DHT22;9352;50.888;4.466;2022-07-29T01:07:34;19.00;99.90
18446;DHT22;9352;50.888;4.466;2022-07-29T01:10:02;18.90;99.90
18446;DHT22;9352;50.888;4.466;2022-07-29T01:12:30;18.90;99.90
18446;DHT22;9352;50.888;4.466;2022-07-29T01:15:00;18.90;99.90
18446;DHT22;9352;50.888;4.466;2022-07-29T01:17:33;18.80;99.90
18446;DHT22;9352;50.888;4.466;2022-07-29T01:20:07;18.80;99.90
18446;DHT22;9352;50.888;4.466;2022-07-29T01:22:48;18.80;99.90
18446;DHT22;9352;50.888;4.466;2022-07-29T01:25:45;18.80;99.90
18446;DHT22;9352;50.888;4.466;2022-07-29T01:28:39;18.70;99.90
18446;DHT22;9352;50.888;4.466;2022-07-29T01:31:09;18.70;99.90
18446;DHT22;9352;50.888;4.466;2022-07-29T01:33:41;18.70;99.90
18446;DHT22;9352;50.888;4.466;2022-07-29T01:36:19;18.70;99.90
18446;DHT22;9352;50.888;4.466;2022-07-29T01:38:53;18.60;99.90
18446;DHT22;9352;50.888;4.466;2022-07-29T01:41:21;18.60;99.90
18446;DHT22;9352;50.888;4.466;2022-07-29T01:43:54;18.60;99.90
18446;DHT22;9352;50.888;4.466;2022-07-29T01:46:27;18.50;99.90
18446;DHT22;9352;50.888;4.466;2022-07-29T01:48:59;18.40;99.90
18446;DHT22;9352;50.888;4.466;2022-07-29T01:51:32;18.30;99.90
18446;DHT22;9352;50.888;4.466;2022-07-29T01:54:04;18.40;99.90
18446;DHT22;9352;50.888;4.466;2022-07-29T01:56:35;18.30;99.90
18446;DHT22;9352;50.888;4.466;2022-07-29T01:59:06;18.30;99.90
18446;DHT22;9352;50.888;4.466;2022-07-29T02:01:35;18.20;99.90
18446;DHT22;9352;50.888;4.466;2022-07-29T02:04:04;18.20;99.90
18446;DHT22;9352;50.888;4.466;2022-07-29T02:06:33;18.10;99.90
18446;DHT22;9352;50.888;4.466;2022-07-29T02:09:02;18.00;99.90
18446;DHT22;9352;50.888;4.466;2022-07-29T02:11:30;17.90;99.90
18446;DHT22;9352;50.888;4.466;2022-07-29T02:13:58;17.90;99.90
18446;DHT22;9352;50.888;4.466;2022-07-29T02:16:29;17.90;99.90
18446;DHT22;9352;50.888;4.466;2022-07-29T02:18:58;17.90;99.90
18446;DHT22;9352;50.888;4.466;2022-07-29T02:21:27;17.90;99.90
18446;DHT22;9352;50.888;4.466;2022-07-29T02:23:59;17.90;99.90
18446;DHT22;9352;50.888;4.466;2022-07-29T02:26:28;17.80;99.90
18446;DHT22;9352;50.888;4.466;2022-07-29T02:28:57;17.80;99.90
18446;DHT22;9352;50.888;4.466;2022-07-29T02:31:29;17.80;99.90
18446;DHT22;9352;50.888;4.466;2022-07-29T02:34:00;17.80;99.90
18446;DHT22;9352;50.888;4.466;2022-07-29T02:36:29;17.80;99.90
18446;DHT22;9352;50.888;4.466;2022-07-29T02:38:58;17.70;99.90
18446;DHT22;9352;50.888;4.466;2022-07-29T02:41:29;17.70;99.90
18446;DHT22;9352;50.888;4.466;2022-07-29T02:44:02;17.60;99.90
18446;DHT22;9352;50.888;4.466;2022-07-29T02:46:34;17.60;99.90
18446;DHT22;9352;50.888;4.466;2022-07-29T02:49:06;17.60;99.90
18446;DHT22;9352;50.888;4.466;2022-07-29T02:51:41;17.60;99.90
18446;DHT22;9352;50.888;4.466;2022-07-29T02:54:11;17.50;99.90
18446;DHT22;9352;50.888;4.466;2022-07-29T02:56:41;17.50;99.90
18446;DHT22;9352;50.888;4.466;2022-07-29T02:59:11;17.50;99.90
18446;DHT22;9352;50.888;4.466;2022-07-29T03:01:43;17.40;99.90
18446;DHT22;9352;50.888;4.466;2022-07-29T03:04:11;17.40;99.90
18446;DHT22;9352;50.888;4.466;2022-07-29T03:06:40;17.30;99.90
18446;DHT22;9352;50.888;4.466;2022-07-29T03:09:10;17.30;99.90
18446;DHT22;9352;50.888;4.466;2022-07-29T03:11:39;17.30;99.90
18446;DHT22;9352;50.888;4.466;2022-07-29T03:14:06;17.20;99.90
18446;DHT22;9352;50.888;4.466;2022-07-29T03:16:34;17.20;99.90
18446;DHT22;9352;50.888;4.466;2022-07-29T03:19:04;17.20;99.90
18446;DHT22;9352;50.888;4.466;2022-07-29T03:21:31;17.10;99.90
18446;DHT22;9352;50.888;4.466;2022-07-29T03:23:58;17.10;99.90
18446;DHT22;9352;50.888;4.466;2022-07-29T03:26:25;17.10;99.90
18446;DHT22;9352;50.888;4.466;2022-07-29T03:28:52;17.10;99.90
18446;DHT22;9352;50.888;4.466;2022-07-29T03:31:19;17.10;99.90
18446;DHT22;9352;50.888;4.466;2022-07-29T03:33:46;17.00;99.90
18446;DHT22;9352;50.888;4.466;2022-07-29T03:36:15;17.00;99.90
18446;DHT22;9352;50.888;4.466;2022-07-29T03:38:42;17.00;99.90
18446;DHT22;9352;50.888;4.466;2022-07-29T03:41:11;17.00;99.90
18446;DHT22;9352;50.888;4.466;2022-07-29T03:43:41;17.00;99.90
18446;DHT22;9352;50.888;4.466;2022-07-29T03:46:10;17.00;99.90
18446;DHT22;9352;50.888;4.466;2022-07-29T03:48:42;16.90;99.90
18446;DHT22;9352;50.888;4.466;2022-07-29T03:51:14;17.00;99.90
18446;DHT22;9352;50.888;4.466;2022-07-29T03:53:41;16.90;99.90
18446;DHT22;9352;50.888;4.466;2022-07-29T03:56:10;16.90;99.90
18446;DHT22;9352;50.888;4.466;2022-07-29T03:58:42;16.90;99.90
18446;DHT22;9352;50.888;4.466;2022-07-29T04:01:10;16.80;99.90
18446;DHT22;9352;50.888;4.466;2022-07-29T04:03:38;16.80;99.90
18446;DHT22;9352;50.888;4.466;2022-07-29T04:06:07;16.80;99.90
18446;DHT22;9352;50.888;4.466;2022-07-29T04:08:35;16.80;99.90
18446;DHT22;9352;50.888;4.466;2022-07-29T04:11:02;16.80;99.90
18446;DHT22;9352;50.888;4.466;2022-07-29T04:13:30;16.80;99.90
18446;DHT22;9352;50.888;4.466;2022-07-29T04:15:57;16.70;99.90
18446;DHT22;9352;50.888;4.466;2022-07-29T04:18:24;16.80;99.90
18446;DHT22;9352;50.888;4.466;2022-07-29T04:20:51;16.80;99.90
18446;DHT22;9352;50.888;4.466;2022-07-29T04:23:17;16.80;99.90
18446;DHT22;9352;50.888;4.466;2022-07-29T04:25:46;16.80;99.90
18446;DHT22;9352;50.888;4.466;2022-07-29T04:28:13;16.80;99.90
18446;DHT22;9352;50.888;4.466;2022-07-29T04:30:40;16.80;99.90
18446;DHT22;9352;50.888;4.466;2022-07-29T04:33:07;16.80;99.90
18446;DHT22;9352;50.888;4.466;2022-07-29T04:35:35;16.80;99.90
18446;DHT22;9352;50.888;4.466;2022-07-29T04:38:03;16.80;99.90
18446;DHT22;9352;50.888;4.466;2022-07-29T04:40:30;16.80;99.90
18446;DHT22;9352;50.888;4.466;2022-07-29T04:43:00;16.80;99.90
18446;DHT22;9352;50.888;4.466;2022-07-29T04:45:27;16.80;99.90
18446;DHT22;9352;50.888;4.466;2022-07-29T04:47:55;16.80;99.90
18446;DHT22;9352;50.888;4.466;2022-07-29T04:50:22;16.80;99.90
18446;DHT22;9352;50.888;4.466;2022-07-29T04:52:49;16.80;99.90
18446;DHT22;9352;50.888;4.466;2022-07-29T04:55:16;16.70;99.90
18446;DHT22;9352;50.888;4.466;2022-07-29T04:57:43;16.80;99.90
18446;DHT22;9352;50.888;4.466;2022-07-29T05:00:12;16.80;99.90
18446;DHT22;9352;50.888;4.466;2022-07-29T05:02:39;16.90;99.90
18446;DHT22;9352;50.888;4.466;2022-07-29T05:05:07;16.90;99.90
18446;DHT22;9352;50.888;4.466;2022-07-29T05:07:34;16.90;99.90
18446;DHT22;9352;50.888;4.466;2022-07-29T05:10:01;16.90;99.90
18446;DHT22;9352;50.888;4.466;2022-07-29T05:12:28;17.00;99.90
18446;DHT22;9352;50.888;4.466;2022-07-29T05:14:54;17.00;99.90
18446;DHT22;9352;50.888;4.466;2022-07-29T05:17:23;16.90;99.90
18446;DHT22;9352;50.888;4.466;2022-07-29T05:19:50;16.90;99.90
18446;DHT22;9352;50.888;4.466;2022-07-29T05:22:18;17.00;99.90
18446;DHT22;9352;50.888;4.466;2022-07-29T05:24:45;17.10;99.90
18446;DHT22;9352;50.888;4.466;2022-07-29T05:27:12;17.10;99.90
18446;DHT22;9352;50.888;4.466;2022-07-29T05:29:39;17.20;99.90
18446;DHT22;9352;50.888;4.466;2022-07-29T05:32:06;17.30;99.90
18446;DHT22;9352;50.888;4.466;2022-07-29T05:34:35;17.40;99.90
18446;DHT22;9352;50.888;4.466;2022-07-29T05:37:01;17.50;99.90
18446;DHT22;9352;50.888;4.466;2022-07-29T05:39:28;17.60;99.90
18446;DHT22;9352;50.888;4.466;2022-07-29T05:41:55;17.60;99.90
18446;DHT22;9352;50.888;4.466;2022-07-29T05:44:22;17.70;99.90
18446;DHT22;9352;50.888;4.466;2022-07-29T05:46:49;18.00;99.90
18446;DHT22;9352;50.888;4.466;2022-07-29T05:49:16;18.10;99.90
18446;DHT22;9352;50.888;4.466;2022-07-29T05:51:45;18.10;99.90
18446;DHT22;9352;50.888;4.466;2022-07-29T05:54:12;18.00;99.90
18446;DHT22;9352;50.888;4.466;2022-07-29T05:56:39;18.00;99.90
18446;DHT22;9352;50.888;4.466;2022-07-29T05:59:06;18.00;99.90
18446;DHT22;9352;50.888;4.466;2022-07-29T06:01:34;18.10;99.90
18446;DHT22;9352;50.888;4.466;2022-07-29T06:04:04;18.10;99.90
18446;DHT22;9352;50.888;4.466;2022-07-29T06:06:32;18.10;99.90
18446;DHT22;9352;50.888;4.466;2022-07-29T06:09:00;18.10;99.90
18446;DHT22;9352;50.888;4.466;2022-07-29T06:11:27;18.00;99.90
18446;DHT22;9352;50.888;4.466;2022-07-29T06:13:54;17.90;99.90
18446;DHT22;9352;50.888;4.466;2022-07-29T06:16:21;17.80;99.90
18446;DHT22;9352;50.888;4.466;2022-07-29T06:18:48;17.80;99.90
18446;DHT22;9352;50.888;4.466;2022-07-29T06:21:15;17.80;99.90
18446;DHT22;9352;50.888;4.466;2022-07-29T06:23:42;17.80;99.90
18446;DHT22;9352;50.888;4.466;2022-07-29T06:26:10;17.90;99.90
18446;DHT22;9352;50.888;4.466;2022-07-29T06:28:38;18.20;99.90
18446;DHT22;9352;50.888;4.466;2022-07-29T06:31:05;18.20;99.90
18446;DHT22;9352;50.888;4.466;2022-07-29T06:33:32;18.20;99.90
18446;DHT22;9352;50.888;4.466;2022-07-29T06:35:59;18.20;99.90
18446;DHT22;9352;50.888;4.466;2022-07-29T06:38:26;18.20;99.90
18446;DHT22;9352;50.888;4.466;2022-07-29T06:40:53;18.10;99.90
18446;DHT22;9352;50.888;4.466;2022-07-29T06:43:34;18.10;99.90
18446;DHT22;9352;50.888;4.466;2022-07-29T06:46:04;18.10;99.90
18446;DHT22;9352;50.888;4.466;2022-07-29T06:48:31;18.10;99.90
18446;DHT22;9352;50.888;4.466;2022-07-29T06:50:59;18.20;99.90
18446;DHT22;9352;50.888;4.466;2022-07-29T06:53:27;18.30;99.90
18446;DHT22;9352;50.888;4.466;2022-07-29T06:55:54;18.40;99.90
18446;DHT22;9352;50.888;4.466;2022-07-29T06:58:21;18.70;99.90
18446;DHT22;9352;50.888;4.466;2022-07-29T07:00:49;18.90;99.90
18446;DHT22;9352;50.888;4.466;2022-07-29T07:03:19;18.80;99.90
18446;DHT22;9352;50.888;4.466;2022-07-29T07:05:46;18.90;99.90
18446;DHT22;9352;50.888;4.466;2022-07-29T07:08:13;19.00;99.90
18446;DHT22;9352;50.888;4.466;2022-07-29T07:10:41;19.20;99.90
18446;DHT22;9352;50.888;4.466;2022-07-29T07:13:09;19.40;99.90
18446;DHT22;9352;50.888;4.466;2022-07-29T07:15:36;19.70;99.90
18446;DHT22;9352;50.888;4.466;2022-07-29T07:18:05;20.30;99.90
18446;DHT22;9352;50.888;4.466;2022-07-29T07:20:32;20.40;99.90
18446;DHT22;9352;50.888;4.466;2022-07-29T07:22:59;20.40;99.90
18446;DHT22;9352;50.888;4.466;2022-07-29T07:25:26;20.60;99.90
18446;DHT22;9352;50.888;4.466;2022-07-29T07:27:53;21.00;99.90
18446;DHT22;9352;50.888;4.466;2022-07-29T07:30:20;21.20;99.90
18446;DHT22;9352;50.888;4.466;2022-07-29T07:32:47;21.20;99.90
18446;DHT22;9352;50.888;4.466;2022-07-29T07:35:15;20.90;99.90
18446;DHT22;9352;50.888;4.466;2022-07-29T07:37:42;20.80;99.90
18446;DHT22;9352;50.888;4.466;2022-07-29T07:40:11;20.80;99.90
18446;DHT22;9352;50.888;4.466;2022-07-29T07:42:38;20.80;99.90
18446;DHT22;9352;50.888;4.466;2022-07-29T07:45:06;20.50;99.90
18446;DHT22;9352;50.888;4.466;2022-07-29T07:47:34;20.40;99.90
18446;DHT22;9352;50.888;4.466;2022-07-29T07:50:02;20.50;99.90
18446;DHT22;9352;50.888;4.466;2022-07-29T07:52:30;20.60;99.90
18446;DHT22;9352;50.888;4.466;2022-07-29T07:54:57;20.60;99.90
18446;DHT22;9352;50.888;4.466;2022-07-29T07:57:24;20.70;99.90
18446;DHT22;9352;50.888;4.466;2022-07-29T07:59:51;20.40;99.90
18446;DHT22;9352;50.888;4.466;2022-07-29T08:02:18;20.40;99.90
18446;DHT22;9352;50.888;4.466;2022-07-29T08:04:45;20.40;99.90
18446;DHT22;9352;50.888;4.466;2022-07-29T08:07:11;20.60;99.90
18446;DHT22;9352;50.888;4.466;2022-07-29T08:09:41;20.70;99.90
18446;DHT22;9352;50.888;4.466;2022-07-29T08:12:08;20.80;99.90
18446;DHT22;9352;50.888;4.466;2022-07-29T08:14:35;21.10;99.90
18446;DHT22;9352;50.888;4.466;2022-07-29T08:17:02;21.10;99.90
18446;DHT22;9352;50.888;4.466;2022-07-29T08:19:29;21.20;99.90
18446;DHT22;9352;50.888;4.466;2022-07-29T08:21:56;21.10;99.90
18446;DHT22;9352;50.888;4.466;2022-07-29T08:24:23;21.00;99.90
18446;DHT22;9352;50.888;4.466;2022-07-29T08:27:09;21.00;99.90
18446;DHT22;9352;50.888;4.466;2022-07-29T08:29:36;21.30;99.90
18446;DHT22;9352;50.888;4.466;2022-07-29T08:32:04;21.20;99.90
18446;DHT22;9352;50.888;4.466;2022-07-29T08:34:31;21.30;99.90
18446;DHT22;9352;50.888;4.466;2022-07-29T08:36:58;21.60;99.90
18446;DHT22;9352;50.888;4.466;2022-07-29T08:39:25;21.70;99.90
18446;DHT22;9352;50.888;4.466;2022-07-29T08:41:52;21.90;99.90
18446;DHT22;9352;50.888;4.466;2022-07-29T08:44:21;22.00;99.90
18446;DHT22;9352;50.888;4.466;2022-07-29T08:46:49;22.00;99.90
18446;DHT22;9352;50.888;4.466;2022-07-29T08:49:16;21.90;99.90
18446;DHT22;9352;50.888;4.466;2022-07-29T08:51:44;22.10;99.90
18446;DHT22;9352;50.888;4.466;2022-07-29T08:54:11;22.10;99.90
18446;DHT22;9352;50.888;4.466;2022-07-29T08:56:43;22.30;99.90
18446;DHT22;9352;50.888;4.466;2022-07-29T08:59:13;22.60;99.90
18446;DHT22;9352;50.888;4.466;2022-07-29T09:01:43;22.80;99.90
18446;DHT22;9352;50.888;4.466;2022-07-29T09:04:11;23.00;99.90
18446;DHT22;9352;50.888;4.466;2022-07-29T09:06:43;23.10;99.90
18446;DHT22;9352;50.888;4.466;2022-07-29T09:09:11;23.30;99.90
18446;DHT22;9352;50.888;4.466;2022-07-29T09:11:39;23.40;99.90
18446;DHT22;9352;50.888;4.466;2022-07-29T09:14:07;23.50;99.90
18446;DHT22;9352;50.888;4.466;2022-07-29T09:16:56;23.60;99.90
18446;DHT22;9352;50.888;4.466;2022-07-29T09:19:25;23.50;99.90
18446;DHT22;9352;50.888;4.466;2022-07-29T09:21:52;23.40;99.90
18446;DHT22;9352;50.888;4.466;2022-07-29T09:24:41;23.30;99.90
18446;DHT22;9352;50.888;4.466;2022-07-29T09:27:19;23.50;99.90
18446;DHT22;9352;50.888;4.466;2022-07-29T09:29:48;23.50;99.90
18446;DHT22;9352;50.888;4.466;2022-07-29T09:32:22;23.50;99.90
18446;DHT22;9352;50.888;4.466;2022-07-29T09:34:50;23.50;99.90
18446;DHT22;9352;50.888;4.466;2022-07-29T09:37:26;23.70;99.90
18446;DHT22;9352;50.888;4.466;2022-07-29T09:39:53;23.80;99.90
18446;DHT22;9352;50.888;4.466;2022-07-29T09:42:28;24.20;99.90
18446;DHT22;9352;50.888;4.466;2022-07-29T09:44:57;24.50;99.90
18446;DHT22;9352;50.888;4.466;2022-07-29T09:47:40;24.50;99.90
18446;DHT22;9352;50.888;4.466;2022-07-29T09:50:08;24.60;99.90
18446;DHT22;9352;50.888;4.466;2022-07-29T09:52:45;24.80;99.90
18446;DHT22;9352;50.888;4.466;2022-07-29T09:55:12;24.70;99.90
18446;DHT22;9352;50.888;4.466;2022-07-29T09:57:39;24.50;99.90
18446;DHT22;9352;50.888;4.466;2022-07-29T10:00:08;24.60;99.90
18446;DHT22;9352;50.888;4.466;2022-07-29T10:02:38;25.20;99.90
18446;DHT22;9352;50.888;4.466;2022-07-29T10:05:15;26.10;99.90
18446;DHT22;9352;50.888;4.466;2022-07-29T10:07:44;26.90;99.90
18446;DHT22;9352;50.888;4.466;2022-07-29T10:10:17;27.60;99.90
18446;DHT22;9352;50.888;4.466;2022-07-29T10:12:49;28.30;99.90
18446;DHT22;9352;50.888;4.466;2022-07-29T10:15:16;28.70;99.90
18446;DHT22;9352;50.888;4.466;2022-07-29T10:17:45;28.40;99.90
18446;DHT22;9352;50.888;4.466;2022-07-29T10:20:14;28.70;99.90
18446;DHT22;9352;50.888;4.466;2022-07-29T10:22:41;27.90;99.90
18446;DHT22;9352;50.888;4.466;2022-07-29T10:25:10;28.50;99.90
18446;DHT22;9352;50.888;4.466;2022-07-29T10:27:37;29.00;99.90
18446;DHT22;9352;50.888;4.466;2022-07-29T10:30:05;29.40;99.90
18446;DHT22;9352;50.888;4.466;2022-07-29T10:32:48;30.50;98.90
18446;DHT22;9352;50.888;4.466;2022-07-29T10:35:39;31.20;97.00
18446;DHT22;9352;50.888;4.466;2022-07-29T10:38:41;30.40;97.70
18446;DHT22;9352;50.888;4.466;2022-07-29T10:41:23;30.10;97.00
18446;DHT22;9352;50.888;4.466;2022-07-29T10:43:54;29.50;97.30
18446;DHT22;9352;50.888;4.466;2022-07-29T10:46:22;29.90;96.70
18446;DHT22;9352;50.888;4.466;2022-07-29T10:49:09;29.20;96.80
18446;DHT22;9352;50.888;4.466;2022-07-29T10:51:59;30.80;95.80
18446;DHT22;9352;50.888;4.466;2022-07-29T10:54:39;31.20;94.90
18446;DHT22;9352;50.888;4.466;2022-07-29T10:57:18;32.00;93.90
18446;DHT22;9352;50.888;4.466;2022-07-29T10:59:46;30.90;93.60
18446;DHT22;9352;50.888;4.466;2022-07-29T11:02:42;31.40;93.30
18446;DHT22;9352;50.888;4.466;2022-07-29T11:05:12;30.60;93.50
18446;DHT22;9352;50.888;4.466;2022-07-29T11:14:01;33.30;89.90
18446;DHT22;9352;50.888;4.466;2022-07-29T11:17:01;33.10;88.00
18446;DHT22;9352;50.888;4.466;2022-07-29T11:19:29;31.40;89.30
18446;DHT22;9352;50.888;4.466;2022-07-29T11:21:58;30.30;90.30
18446;DHT22;9352;50.888;4.466;2022-07-29T11:24:26;29.20;90.90
18446;DHT22;9352;50.888;4.466;2022-07-29T11:27:16;29.00;90.80
18446;DHT22;9352;50.888;4.466;2022-07-29T11:29:50;30.60;89.80
18446;DHT22;9352;50.888;4.466;2022-07-29T11:32:18;31.50;88.40
18446;DHT22;9352;50.888;4.466;2022-07-29T11:34:47;32.50;86.80
18446;DHT22;9352;50.888;4.466;2022-07-29T11:37:23;33.30;85.30
18446;DHT22;9352;50.888;4.466;2022-07-29T11:40:23;32.00;86.00
18446;DHT22;9352;50.888;4.466;2022-07-29T11:42:50;30.80;86.20
18446;DHT22;9352;50.888;4.466;2022-07-29T11:45:22;29.70;87.20
18446;DHT22;9352;50.888;4.466;2022-07-29T11:47:55;30.90;86.00
18446;DHT22;9352;50.888;4.466;2022-07-29T11:50:34;32.20;84.50
18446;DHT22;9352;50.888;4.466;2022-07-29T11:53:09;32.90;83.70
18446;DHT22;9352;50.888;4.466;2022-07-29T11:55:38;32.00;81.70
18446;DHT22;9352;50.888;4.466;2022-07-29T11:58:05;30.70;82.80
18446;DHT22;9352;50.888;4.466;2022-07-29T12:00:34;30.60;84.30
18446;DHT22;9352;50.888;4.466;2022-07-29T12:03:06;31.90;81.40
18446;DHT22;9352;50.888;4.466;2022-07-29T12:05:36;32.90;79.30
18446;DHT22;9352;50.888;4.466;2022-07-29T12:08:13;33.00;79.10
18446;DHT22;9352;50.888;4.466;2022-07-29T12:10:40;32.00;78.80
18446;DHT22;9352;50.888;4.466;2022-07-29T12:13:08;31.30;78.70
18446;DHT22;9352;50.888;4.466;2022-07-29T12:15:36;30.20;78.80
18446;DHT22;9352;50.888;4.466;2022-07-29T12:18:13;29.80;81.80
18446;DHT22;9352;50.888;4.466;2022-07-29T12:20:41;30.00;80.80
18446;DHT22;9352;50.888;4.466;2022-07-29T12:23:08;30.40;79.40
18446;DHT22;9352;50.888;4.466;2022-07-29T12:25:40;30.20;80.70
18446;DHT22;9352;50.888;4.466;2022-07-29T12:28:08;30.80;80.10
18446;DHT22;9352;50.888;4.466;2022-07-29T12:30:39;32.20;79.20
18446;DHT22;9352;50.888;4.466;2022-07-29T12:33:14;33.30;75.90
18446;DHT22;9352;50.888;4.466;2022-07-29T12:35:42;33.30;76.90
18446;DHT22;9352;50.888;4.466;2022-07-29T12:38:11;33.20;75.10
18446;DHT22;9352;50.888;4.466;2022-07-29T12:40:40;32.00;75.90
18446;DHT22;9352;50.888;4.466;2022-07-29T12:43:08;31.40;78.30
18446;DHT22;9352;50.888;4.466;2022-07-29T12:45:36;31.30;76.50
18446;DHT22;9352;50.888;4.466;2022-07-29T12:48:03;31.50;77.70
18446;DHT22;9352;50.888;4.466;2022-07-29T12:50:31;31.30;77.80
18446;DHT22;9352;50.888;4.466;2022-07-29T12:53:09;31.80;76.80
18446;DHT22;9352;50.888;4.466;2022-07-29T12:55:43;33.10;76.60
18446;DHT22;9352;50.888;4.466;2022-07-29T12:58:25;33.00;74.10
18446;DHT22;9352;50.888;4.466;2022-07-29T13:01:03;33.10;74.00
18446;DHT22;9352;50.888;4.466;2022-07-29T13:03:45;32.80;73.70
18446;DHT22;9352;50.888;4.466;2022-07-29T13:06:32;34.00;72.10
18446;DHT22;9352;50.888;4.466;2022-07-29T13:09:08;33.70;71.00
18446;DHT22;9352;50.888;4.466;2022-07-29T13:11:38;34.30;70.80
18446;DHT22;9352;50.888;4.466;2022-07-29T13:14:07;33.00;71.90
18446;DHT22;9352;50.888;4.466;2022-07-29T13:16:35;31.50;74.50
18446;DHT22;9352;50.888;4.466;2022-07-29T13:19:10;31.10;75.50
18446;DHT22;9352;50.888;4.466;2022-07-29T13:21:38;31.00;75.40
18446;DHT22;9352;50.888;4.466;2022-07-29T13:24:06;31.40;75.60
18446;DHT22;9352;50.888;4.466;2022-07-29T13:26:33;32.40;73.90
18446;DHT22;9352;50.888;4.466;2022-07-29T13:29:02;32.70;73.00
18446;DHT22;9352;50.888;4.466;2022-07-29T13:31:29;34.00;71.10
18446;DHT22;9352;50.888;4.466;2022-07-29T13:33:55;34.80;69.80
18446;DHT22;9352;50.888;4.466;2022-07-29T13:36:22;34.20;70.80
18446;DHT22;9352;50.888;4.466;2022-07-29T13:38:49;32.20;73.30
18446;DHT22;9352;50.888;4.466;2022-07-29T13:41:16;30.60;75.90
18446;DHT22;9352;50.888;4.466;2022-07-29T13:43:43;30.10;76.80
18446;DHT22;9352;50.888;4.466;2022-07-29T13:46:12;29.60;77.40
18446;DHT22;9352;50.888;4.466;2022-07-29T13:48:39;29.70;77.70
18446;DHT22;9352;50.888;4.466;2022-07-29T13:51:07;30.40;76.10
18446;DHT22;9352;50.888;4.466;2022-07-29T13:53:33;30.70;75.80
18446;DHT22;9352;50.888;4.466;2022-07-29T13:56:00;30.20;75.60
18446;DHT22;9352;50.888;4.466;2022-07-29T13:58:27;30.00;75.60
18446;DHT22;9352;50.888;4.466;2022-07-29T14:00:55;30.30;76.00
18446;DHT22;9352;50.888;4.466;2022-07-29T14:03:24;32.10;74.80
18446;DHT22;9352;50.888;4.466;2022-07-29T14:05:51;32.60;72.20
18446;DHT22;9352;50.888;4.466;2022-07-29T14:08:17;33.60;71.90
18446;DHT22;9352;50.888;4.466;2022-07-29T14:10:44;34.40;70.10
18446;DHT22;9352;50.888;4.466;2022-07-29T14:13:11;34.70;69.10
18446;DHT22;9352;50.888;4.466;2022-07-29T14:15:38;34.60;68.90
18446;DHT22;9352;50.888;4.466;2022-07-29T14:18:05;35.60;67.20
18446;DHT22;9352;50.888;4.466;2022-07-29T14:20:33;34.80;67.30
18446;DHT22;9352;50.888;4.466;2022-07-29T14:23:00;35.20;66.30
18446;DHT22;9352;50.888;4.466;2022-07-29T14:25:27;36.00;65.80
18446;DHT22;9352;50.888;4.466;2022-07-29T14:27:54;39.00;60.80
18446;DHT22;9352;50.888;4.466;2022-07-29T14:30:21;36.80;61.50
18446;DHT22;9352;50.888;4.466;2022-07-29T14:32:48;34.30;65.20
18446;DHT22;9352;50.888;4.466;2022-07-29T14:35:15;33.80;66.70
18446;DHT22;9352;50.888;4.466;2022-07-29T14:37:44;36.00;65.00
18446;DHT22;9352;50.888;4.466;2022-07-29T14:40:11;34.80;62.80
18446;DHT22;9352;50.888;4.466;2022-07-29T14:42:38;35.30;63.70
18446;DHT22;9352;50.888;4.466;2022-07-29T14:45:06;36.70;63.50
18446;DHT22;9352;50.888;4.466;2022-07-29T14:47:33;37.40;61.50
18446;DHT22;9352;50.888;4.466;2022-07-29T14:50:00;38.20;61.30
18446;DHT22;9352;50.888;4.466;2022-07-29T14:52:27;38.60;60.40
18446;DHT22;9352;50.888;4.466;2022-07-29T14:54:55;37.20;61.00
18446;DHT22;9352;50.888;4.466;2022-07-29T14:57:22;36.40;60.40
18446;DHT22;9352;50.888;4.466;2022-07-29T14:59:49;36.00;61.70
18446;DHT22;9352;50.888;4.466;2022-07-29T15:02:16;36.40;62.40
18446;DHT22;9352;50.888;4.466;2022-07-29T15:04:43;36.50;59.50
18446;DHT22;9352;50.888;4.466;2022-07-29T15:07:11;35.60;61.40
18446;DHT22;9352;50.888;4.466;2022-07-29T15:09:38;35.60;61.10
18446;DHT22;9352;50.888;4.466;2022-07-29T15:12:07;35.80;60.90
18446;DHT22;9352;50.888;4.466;2022-07-29T15:14:36;37.80;59.40
18446;DHT22;9352;50.888;4.466;2022-07-29T15:17:03;40.30;57.20
18446;DHT22;9352;50.888;4.466;2022-07-29T15:19:29;38.80;56.80
18446;DHT22;9352;50.888;4.466;2022-07-29T15:21:56;41.40;55.60
18446;DHT22;9352;50.888;4.466;2022-07-29T15:24:23;41.60;54.50
18446;DHT22;9352;50.888;4.466;2022-07-29T15:26:50;39.80;55.00
18446;DHT22;9352;50.888;4.466;2022-07-29T15:29:18;37.50;55.00
18446;DHT22;9352;50.888;4.466;2022-07-29T15:31:45;38.20;54.80
18446;DHT22;9352;50.888;4.466;2022-07-29T15:34:12;39.10;55.80
18446;DHT22;9352;50.888;4.466;2022-07-29T15:36:39;38.00;57.30
18446;DHT22;9352;50.888;4.466;2022-07-29T15:39:06;38.00;55.80
18446;DHT22;9352;50.888;4.466;2022-07-29T15:41:33;39.20;54.50
18446;DHT22;9352;50.888;4.466;2022-07-29T15:44:00;38.90;53.80
18446;DHT22;9352;50.888;4.466;2022-07-29T15:46:29;37.30;55.20
18446;DHT22;9352;50.888;4.466;2022-07-29T15:49:13;36.60;56.00
18446;DHT22;9352;50.888;4.466;2022-07-29T15:51:40;36.80;56.40
18446;DHT22;9352;50.888;4.466;2022-07-29T15:54:07;39.00;55.40
18446;DHT22;9352;50.888;4.466;2022-07-29T15:56:34;41.10;53.60
18446;DHT22;9352;50.888;4.466;2022-07-29T15:59:01;42.70;51.80
18446;DHT22;9352;50.888;4.466;2022-07-29T16:01:29;39.40;52.80
18446;DHT22;9352;50.888;4.466;2022-07-29T16:03:57;38.30;53.80
18446;DHT22;9352;50.888;4.466;2022-07-29T16:06:24;40.00;53.00